Time;durP1;ratioP1;P1;durP2;ratioP2;P2;SDS_P1;SDS_P2;PMS_P1;PMS_P2;Temp;Humidity;BMP_temperature;BMP_pressure;BME280_temperature;BME280_humidity;BME280_pressure;Samples;Min_cycle;Max_cycle;Signal;HPM_P1;HPM_P2
2023/06/05 00:02:55;;;;;;;5.20;3.00;;;;;;;10.95;49.48;100829.47;130450;1257;114693;-68
2023/06/05 00:05:57;;;;;;;3.70;2.20;;;;;;;10.92;49.47;100827.80;130358;1254;114717;-67
2023/06/05 00:08:59;;;;;;;9.10;2.60;;;;;;;10.88;49.53;100825.65;130333;1256;114834;-69
2023/06/05 00:12:01;;;;;;;4.30;2.20;;;;;;;10.86;49.62;100826.13;130446;1256;115305;-68
2023/06/05 00:15:04;;;;;;;5.40;2.70;;;;;;;10.81;49.87;100827.38;130352;1275;114745;-67
2023/06/05 00:18:08;;;;;;;16.20;11.10;;;;;;;10.77;50.05;100825.77;130188;1256;128589;-68
2023/06/05 00:21:12;;;;;;;5.10;2.80;;;;;;;10.72;49.91;100824.91;130465;1275;116340;-67
2023/06/05 00:24:14;;;;;;;6.30;2.70;;;;;;;10.67;50.13;100827.26;130451;1256;115003;-68
2023/06/05 00:27:16;;;;;;;4.50;2.90;;;;;;;10.62;50.26;100824.60;130262;1256;114755;-68
2023/06/05 00:30:18;;;;;;;4.10;2.50;;;;;;;10.57;50.27;100819.80;130351;1257;114787;-68
2023/06/05 00:33:20;;;;;;;4.50;2.40;;;;;;;10.52;50.45;100824.30;130390;1275;114750;-69
2023/06/05 00:36:23;;;;;;;3.90;2.60;;;;;;;10.47;50.65;100825.02;130612;1257;114731;-68
2023/06/05 00:39:25;;;;;;;4.40;2.50;;;;;;;10.42;50.63;100820.79;130393;1257;115205;-66
2023/06/05 00:42:27;;;;;;;6.10;2.60;;;;;;;10.37;50.81;100818.81;130555;1256;114689;-67
2023/06/05 00:45:29;;;;;;;4.50;2.70;;;;;;;10.33;50.92;100817.88;130366;1268;115811;-67
2023/06/05 00:48:33;;;;;;;4.00;3.10;;;;;;;10.30;51.13;100817.63;130476;1257;115154;-66
2023/06/05 00:51:35;;;;;;;6.50;3.00;;;;;;;10.28;51.12;100818.77;130362;1259;114735;-66
2023/06/05 00:54:37;;;;;;;4.30;3.20;;;;;;;10.25;51.26;100818.05;130353;1276;114789;-67
2023/06/05 00:57:39;;;;;;;6.90;3.70;;;;;;;10.20;51.31;100814.83;130193;1256;114882;-67
2023/06/05 01:00:42;;;;;;;5.90;3.90;;;;;;;10.18;51.50;100809.02;130354;1256;115137;-67
2023/06/05 01:03:45;;;;;;;8.20;5.10;;;;;;;10.17;51.79;100809.05;130206;1259;115139;-65
2023/06/05 01:06:47;;;;;;;5.50;4.10;;;;;;;10.16;51.84;100806.39;130262;1266;114823;-65
2023/06/05 01:09:49;;;;;;;7.20;4.40;;;;;;;10.16;51.97;100805.34;130287;1252;114708;-66
2023/06/05 01:13:08;;;;;;;7.30;4.60;;;;;;;10.17;52.14;100802.63;129936;1254;114891;-67
2023/06/05 01:16:10;;;;;;;5.40;3.80;;;;;;;10.22;52.22;100804.39;130155;1276;127639;-65
2023/06/05 01:19:17;;;;;;;6.30;3.90;;;;;;;10.23;52.22;100801.70;130272;1260;114712;-66
2023/06/05 01:22:20;;;;;;;5.60;3.90;;;;;;;10.22;52.26;100802.81;130288;1256;114703;-66
2023/06/05 01:25:22;;;;;;;5.10;3.00;;;;;;;10.18;52.36;100801.87;130391;1256;114897;-66
2023/06/05 01:28:26;;;;;;;6.80;3.10;;;;;;;10.17;52.66;100805.86;130360;1259;115086;-66
2023/06/05 01:31:29;;;;;;;7.00;3.70;;;;;;;10.17;52.62;100803.32;130483;1256;128815;-66
2023/06/05 01:34:31;;;;;;;6.30;3.40;;;;;;;10.18;52.68;100804.90;130365;1254;115175;-66
2023/06/05 01:37:40;;;;;;;3.90;2.70;;;;;;;10.16;52.65;100803.58;130629;1256;114788;-67
2023/06/05 01:40:43;;;;;;;4.10;2.80;;;;;;;10.13;52.89;100803.34;130467;1275;114789;-66
2023/06/05 01:43:47;;;;;;;6.30;3.10;;;;;;;10.11;53.14;100802.66;130158;1276;115117;-67
2023/06/05 01:46:50;;;;;;;7.50;2.70;;;;;;;10.12;53.24;100804.08;130092;1276;126463;-66
2023/06/05 01:49:55;;;;;;;5.20;3.30;;;;;;;10.13;53.35;100802.80;130387;1257;114827;-66
2023/06/05 01:52:57;;;;;;;;;;;;;;;10.13;53.29;100805.63;130289;1256;114789;-66
2023/06/05 01:55:59;;;;;;;7.00;2.80;;;;;;;10.13;53.56;100802.98;130415;1257;114784;-66
2023/06/05 01:59:06;;;;;;;5.00;3.30;;;;;;;10.13;53.46;100796.90;130494;1275;115799;-66
2023/06/05 02:02:09;;;;;;;6.80;2.90;;;;;;;10.12;53.48;100799.94;130525;1272;127787;-66
2023/06/05 02:05:12;;;;;;;8.00;3.00;;;;;;;10.14;53.86;100796.13;130377;1257;114680;-66
2023/06/05 02:08:19;;;;;;;5.60;2.50;;;;;;;10.17;53.94;100794.02;130564;1256;114694;-67
2023/06/05 02:11:22;;;;;;;6.60;3.00;;;;;;;10.19;54.06;100794.16;130267;1262;114895;-66
2023/06/05 02:14:26;;;;;;;6.90;3.20;;;;;;;10.21;54.10;100793.53;130588;1256;114794;-67
2023/06/05 02:17:29;;;;;;;5.10;3.10;;;;;;;10.22;53.97;100790.30;130579;1275;127979;-68
2023/06/05 02:20:32;;;;;;;4.30;3.10;;;;;;;10.21;53.98;100793.89;130562;1272;114743;-69
2023/06/05 02:23:34;;;;;;;6.70;4.30;;;;;;;10.20;53.95;100791.24;130569;1256;264927;-70
2023/06/05 02:26:37;;;;;;;6.30;3.10;;;;;;;10.19;54.20;100790.94;130585;1256;114702;-66
2023/06/05 02:29:39;;;;;;;6.20;3.30;;;;;;;10.17;54.08;100793.33;130409;1252;114718;-68
2023/06/05 02:32:43;;;;;;;6.90;3.30;;;;;;;10.16;54.22;100794.44;130169;1275;115146;-69
2023/06/05 02:35:46;;;;;;;6.60;3.30;;;;;;;10.16;53.80;100792.67;130354;1275;128511;-69
2023/06/05 02:38:52;;;;;;;5.00;3.60;;;;;;;10.15;54.42;100794.66;130582;1256;114666;-67
2023/06/05 02:41:56;;;;;;;7.10;4.00;;;;;;;10.14;54.42;100793.98;130518;1254;114725;-69
2023/06/05 02:44:59;;;;;;;6.30;3.30;;;;;;;10.12;54.35;100793.16;130084;1261;115311;-70
2023/06/05 02:48:01;;;;;;;6.00;3.20;;;;;;;10.10;54.40;100795.25;130398;1276;114736;-69
2023/06/05 02:51:03;;;;;;;5.80;3.30;;;;;;;10.08;54.55;100795.51;130342;1254;114785;-69
2023/06/05 02:54:06;;;;;;;5.60;3.30;;;;;;;10.07;54.72;100794.45;130230;1276;129253;-70
2023/06/05 02:57:08;;;;;;;3.60;3.20;;;;;;;10.06;54.85;100790.38;130387;1257;115366;-66
2023/06/05 03:00:17;;;;;;;5.70;3.70;;;;;;;10.06;54.74;100790.59;130304;1260;114721;-68
2023/06/05 03:03:25;;;;;;;8.80;4.10;;;;;;;10.04;54.92;100790.10;129963;1260;115198;-68
2023/06/05 03:06:33;;;;;;;9.60;3.70;;;;;;;10.03;55.11;100790.30;130025;1276;114775;-69
2023/06/05 03:09:36;;;;;;;12.20;3.90;;;;;;;10.06;55.43;100793.25;130227;1258;128115;-67
2023/06/05 03:12:39;;;;;;;6.30;3.60;;;;;;;10.09;55.22;100794.91;130057;1262;116542;-68
2023/06/05 03:15:42;;;;;;;8.20;3.30;;;;;;;10.13;55.50;100794.73;130395;1275;114759;-68
2023/06/05 03:18:45;;;;;;;7.90;3.10;;;;;;;10.18;55.35;100795.09;130445;1266;114696;-67
2023/06/05 03:21:49;;;;;;;7.80;3.80;;;;;;;10.22;55.21;100794.77;130409;1256;114686;-68
2023/06/05 03:24:52;;;;;;;7.90;3.80;;;;;;;10.26;55.52;100796.01;130512;1256;127730;-68
2023/06/05 03:27:54;;;;;;;5.50;3.70;;;;;;;10.31;55.43;100796.54;130494;1275;114794;-68
2023/06/05 03:30:56;;;;;;;7.50;4.20;;;;;;;10.37;55.46;100800.41;130574;1254;115090;-69
2023/06/05 03:33:59;;;;;;;8.40;3.80;;;;;;;10.43;55.31;100798.39;130378;1256;115395;-67
2023/06/05 03:37:03;;;;;;;5.10;2.90;;;;;;;10.50;55.74;100801.50;130582;1266;114919;-68
2023/06/05 03:40:08;;;;;;;5.80;3.20;;;;;;;10.57;55.68;100803.55;130379;1263;114759;-68
2023/06/05 03:43:10;;;;;;;3.50;2.10;;;;;;;10.63;55.85;100805.45;130132;1260;127552;-69
2023/06/05 03:46:18;;;;;;;6.60;3.50;;;;;;;10.71;55.93;100807.63;130366;1272;114714;-69
2023/06/05 03:49:22;;;;;;;7.10;2.90;;;;;;;10.78;55.94;100806.45;130360;1258;114955;-69
2023/06/05 03:52:24;;;;;;;7.00;3.20;;;;;;;10.86;55.91;100809.84;130514;1256;114764;-68
2023/06/05 03:55:35;;;;;;;11.90;3.90;;;;;;;10.96;56.26;100805.34;130337;1257;114779;-68
2023/06/05 03:58:39;;;;;;;5.60;2.80;;;;;;;11.06;56.05;100803.43;130201;1254;127904;-69
2023/06/05 04:01:42;;;;;;;8.00;3.60;;;;;;;11.16;56.25;100806.22;130314;1258;115227;-69
2023/06/05 04:04:44;;;;;;;3.80;3.00;;;;;;;11.25;55.81;100807.98;130388;1266;114687;-69
2023/06/05 04:07:47;;;;;;;11.40;3.00;;;;;;;11.36;56.32;100809.48;130362;1257;114637;-69
2023/06/05 04:10:50;;;;;;;6.70;3.00;;;;;;;11.47;56.36;100807.21;130424;1276;114696;-70
2023/06/05 04:13:53;;;;;;;6.60;3.00;;;;;;;11.59;56.07;100811.86;130433;1257;114794;-68
2023/06/05 04:16:56;;;;;;;4.80;2.80;;;;;;;11.72;55.23;100814.49;130417;1257;127081;-69
2023/06/05 04:19:58;;;;;;;10.40;3.50;;;;;;;11.87;55.43;100809.64;130222;1259;115084;-69
2023/06/05 04:23:01;;;;;;;12.70;3.10;;;;;;;12.03;55.33;100806.09;130314;1257;114758;-68
2023/06/05 04:26:04;;;;;;;8.10;3.50;;;;;;;12.17;55.35;100809.52;130250;1260;114690;-69
2023/06/05 04:29:13;;;;;;;8.50;2.40;;;;;;;12.33;55.47;100814.70;130117;1261;114874;-69
2023/06/05 04:32:16;;;;;;;8.10;3.20;;;;;;;12.48;54.81;100818.08;130410;1272;114701;-70
2023/06/05 04:35:18;;;;;;;10.40;3.40;;;;;;;12.61;54.42;100814.95;130307;1259;128191;-69
2023/06/05 04:38:24;;;;;;;8.00;3.30;;;;;;;12.75;54.21;100814.58;130177;1259;115193;-70
2023/06/05 04:41:28;;;;;;;5.40;2.80;;;;;;;13.11;54.16;100813.11;130456;1259;115121;-69
2023/06/05 04:44:31;;;;;;;9.20;3.00;;;;;;;14.13;54.40;100816.11;130547;1256;114776;-69
2023/06/05 04:47:33;;;;;;;6.40;3.30;;;;;;;15.42;53.70;100808.38;130403;1256;114788;-68
2023/06/05 04:50:37;;;;;;;5.30;3.20;;;;;;;16.80;52.42;100800.83;130328;1260;114682;-68
2023/06/05 04:53:41;;;;;;;7.10;3.40;;;;;;;18.01;50.98;100801.64;130459;1257;115223;-68
2023/06/05 04:56:45;;;;;;;6.70;3.40;;;;;;;19.19;49.87;100797.80;130508;1256;114704;-70
2023/06/05 04:59:47;;;;;;;4.90;3.30;;;;;;;20.23;47.38;100793.01;130254;1257;114729;-70
2023/06/05 05:02:50;;;;;;;5.90;2.90;;;;;;;21.01;46.71;100789.55;130451;1256;114728;-68
2023/06/05 05:05:53;;;;;;;3.90;2.80;;;;;;;21.91;45.37;100788.33;130471;1256;114707;-68
2023/06/05 05:08:55;;;;;;;5.30;3.40;;;;;;;22.61;43.88;100789.13;130450;1269;114733;-69
2023/06/05 05:11:59;;;;;;;4.30;3.00;;;;;;;23.24;42.51;100787.39;130570;1256;114710;-69
2023/06/05 05:15:03;;;;;;;4.30;3.20;;;;;;;23.82;41.09;100787.85;130250;1261;114864;-69
2023/06/05 05:18:05;;;;;;;7.50;3.60;;;;;;;24.24;40.30;100785.25;130200;1259;115071;-68
2023/06/05 05:21:08;;;;;;;4.00;3.20;;;;;;;24.66;39.13;100785.94;130417;1266;114801;-67
2023/06/05 05:24:10;;;;;;;4.90;3.00;;;;;;;25.02;38.31;100786.85;130436;1275;114819;-68
2023/06/05 05:27:12;;;;;;;8.80;3.90;;;;;;;25.40;37.86;100786.08;130085;1276;127879;-68
2023/06/05 05:30:14;;;;;;;7.00;3.90;;;;;;;25.81;37.38;100784.19;130317;1266;114816;-69
2023/06/05 05:33:16;;;;;;;4.40;3.30;;;;;;;26.32;36.78;100785.55;130388;1276;114734;-69
2023/06/05 05:36:18;;;;;;;7.80;3.20;;;;;;;26.64;35.32;100784.77;130348;1256;114651;-68
2023/06/05 05:39:20;;;;;;;8.00;3.60;;;;;;;26.76;34.77;100783.48;130922;1266;114743;-66
2023/06/05 05:42:22;;;;;;;6.10;3.40;;;;;;;27.05;34.84;100786.69;130637;1256;115395;-68
2023/06/05 05:45:25;;;;;;;4.40;3.50;;;;;;;27.54;34.39;100786.49;130365;1260;114770;-68
2023/06/05 05:48:27;;;;;;;7.00;3.40;;;;;;;27.86;33.42;100788.77;131318;1260;114729;-67
2023/06/05 05:51:29;;;;;;;4.80;3.20;;;;;;;28.09;32.52;100789.09;132568;1254;114701;-68
2023/06/05 05:54:31;;;;;;;3.60;3.10;;;;;;;28.34;31.92;100785.26;131944;1259;114785;-69
2023/06/05 05:57:33;;;;;;;6.50;3.30;;;;;;;28.47;31.68;100785.32;130582;1266;114747;-70
2023/06/05 06:00:35;;;;;;;7.00;3.30;;;;;;;28.71;30.93;100785.47;130611;1257;114701;-69
2023/06/05 06:03:38;;;;;;;4.20;3.00;;;;;;;28.86;30.44;100788.45;130476;1257;114704;-70
2023/06/05 06:06:41;;;;;;;5.40;3.20;;;;;;;28.96;30.05;100788.35;130340;1260;114730;-69
2023/06/05 06:09:45;;;;;;;4.00;2.80;;;;;;;29.12;30.24;100783.22;130174;1276;114722;-68
2023/06/05 06:12:47;;;;;;;5.80;3.20;;;;;;;29.39;29.68;100782.28;130203;1258;114716;-68
2023/06/05 06:15:49;;;;;;;5.80;2.60;;;;;;;29.51;29.29;100784.20;130287;1260;115398;-68
2023/06/05 06:18:52;;;;;;;5.90;2.80;;;;;;;29.78;29.36;100784.54;130251;1267;114734;-69
2023/06/05 06:21:55;;;;;;;6.70;2.70;;;;;;;29.92;28.52;100788.13;130289;1260;114961;-69
2023/06/05 06:24:57;;;;;;;5.30;3.20;;;;;;;29.87;28.04;100789.21;130192;1267;114717;-69
2023/06/05 06:28:10;;;;;;;9.70;3.20;;;;;;;29.55;27.85;100790.48;130212;1277;127617;-69
2023/06/05 06:31:12;;;;;;;9.80;3.50;;;;;;;29.22;27.93;100790.65;130182;1267;114749;-70
2023/06/05 06:34:14;;;;;;;6.90;3.60;;;;;;;28.75;27.81;100791.85;130270;1267;115285;-69
2023/06/05 06:37:16;;;;;;;7.70;3.20;;;;;;;28.48;28.39;100790.34;130094;1260;114750;-68
2023/06/05 06:40:18;;;;;;;7.50;3.60;;;;;;;28.52;28.37;100792.87;130407;1260;114798;-70
2023/06/05 06:43:20;;;;;;;16.00;4.30;;;;;;;28.21;28.00;100792.03;130489;1254;116288;-69
2023/06/05 06:46:25;;;;;;;8.40;3.40;;;;;;;28.09;28.48;100794.92;130333;1258;114784;-70
2023/06/05 06:49:27;;;;;;;8.80;3.20;;;;;;;28.34;28.64;100789.13;130148;1266;119469;-69
2023/06/05 06:52:29;;;;;;;12.30;3.20;;;;;;;28.60;28.53;100789.70;130325;1259;114698;-68
2023/06/05 06:55:32;;;;;;;9.60;3.80;;;;;;;28.77;28.29;100793.23;130482;1254;114759;-69
2023/06/05 06:58:36;;;;;;;12.20;3.90;;;;;;;28.74;28.11;100790.67;130354;1253;114806;-69
2023/06/05 07:01:45;;;;;;;8.00;3.60;;;;;;;29.02;28.37;100792.27;130372;1257;115173;-69
2023/06/05 07:04:48;;;;;;;8.20;3.30;;;;;;;29.58;28.30;100793.60;130116;1260;114717;-70
2023/06/05 07:07:50;;;;;;;11.70;3.20;;;;;;;30.09;27.72;100792.19;130307;1257;115413;-69
2023/06/05 07:10:55;;;;;;;8.00;3.10;;;;;;;30.40;27.15;100791.41;130247;1276;114779;-69
2023/06/05 07:13:57;;;;;;;13.30;3.60;;;;;;;30.86;27.10;100790.17;130236;1273;114836;-69
2023/06/05 07:17:00;;;;;;;14.50;3.60;;;;;;;31.17;26.63;100794.89;130287;1266;114702;-70
2023/06/05 07:20:05;;;;;;;14.30;2.90;;;;;;;31.35;26.41;100792.99;130255;1276;114777;-68
2023/06/05 07:23:07;;;;;;;6.00;2.70;;;;;;;31.51;26.08;100790.85;130145;1262;119019;-69
2023/06/05 07:26:09;;;;;;;8.20;2.80;;;;;;;31.75;25.94;100790.32;130254;1276;114811;-68
2023/06/05 07:29:11;;;;;;;6.70;3.00;;;;;;;32.11;25.84;100788.98;130466;1257;114721;-68
2023/06/05 07:32:14;;;;;;;4.70;2.80;;;;;;;32.54;25.54;100787.33;130432;1275;115205;-68
2023/06/05 07:35:16;;;;;;;10.80;3.20;;;;;;;32.99;25.38;100786.16;130411;1257;114763;-68
2023/06/05 07:38:18;;;;;;;12.30;3.50;;;;;;;33.28;24.92;100789.75;130356;1255;115144;-68
2023/06/05 07:41:23;;;;;;;5.90;2.90;;;;;;;33.55;24.65;100790.56;130387;1273;114715;-68
2023/06/05 07:44:26;;;;;;;2.70;2.40;;;;;;;33.85;24.68;100787.83;130230;1256;120362;-67
2023/06/05 07:47:28;;;;;;;4.60;2.80;;;;;;;34.14;23.86;100791.49;130262;1266;115287;-69
2023/06/05 07:50:30;;;;;;;4.10;2.80;;;;;;;34.09;23.46;100786.80;130388;1270;114747;-67
2023/06/05 07:53:32;;;;;;;4.90;2.50;;;;;;;34.14;23.32;100785.94;130342;1255;115083;-68
2023/06/05 07:56:35;;;;;;;3.50;2.40;;;;;;;34.35;23.28;100786.17;130020;1254;114957;-68
2023/06/05 07:59:37;;;;;;;5.80;2.70;;;;;;;34.63;23.15;100785.30;130266;1257;114721;-68
2023/06/05 08:02:40;;;;;;;4.20;2.60;;;;;;;34.85;23.00;100785.21;130319;1276;114692;-68
2023/06/05 08:05:43;;;;;;;3.50;2.20;;;;;;;35.06;22.82;100783.39;130485;1276;114737;-67
2023/06/05 08:08:45;;;;;;;8.60;3.00;;;;;;;35.18;22.49;100777.90;130072;1263;114773;-67
2023/06/05 08:11:48;;;;;;;7.30;2.40;;;;;;;35.22;22.29;100778.26;130315;1272;115080;-68
2023/06/05 08:14:50;;;;;;;5.40;2.20;;;;;;;35.06;21.95;100777.19;130596;1276;114785;-68
2023/06/05 08:17:52;;;;;;;4.00;2.10;;;;;;;35.06;21.88;100775.82;130368;1276;114715;-71
2023/06/05 08:20:55;;;;;;;10.70;3.00;;;;;;;34.99;21.43;100772.40;130348;1256;114718;-68
2023/06/05 08:23:57;;;;;;;4.80;2.20;;;;;;;34.74;21.01;100772.46;130441;1266;114718;-68
2023/06/05 08:27:00;;;;;;;4.30;2.30;;;;;;;34.54;21.46;100766.64;130406;1276;115162;-68
2023/06/05 08:30:03;;;;;;;3.20;2.10;;;;;;;34.40;20.46;100768.80;130528;1257;114951;-72
2023/06/05 08:33:05;;;;;;;6.80;2.70;;;;;;;34.16;20.37;100766.08;130431;1266;114719;-67
2023/06/05 08:36:07;;;;;;;8.30;2.50;;;;;;;34.00;20.40;100769.92;130462;1258;114730;-70
2023/06/05 08:39:10;;;;;;;5.90;2.30;;;;;;;33.82;20.30;100772.30;130339;1272;114782;-68
2023/06/05 08:42:18;;;;;;;3.30;2.00;;;;;;;33.49;20.31;100772.43;130458;1273;114774;-68
2023/06/05 08:45:20;;;;;;;5.10;2.20;;;;;;;33.28;20.43;100768.73;130222;1258;114959;-68
2023/06/05 08:48:25;;;;;;;4.00;2.10;;;;;;;33.15;20.56;100769.25;130418;1256;114651;-69
2023/06/05 08:51:27;;;;;;;5.20;2.20;;;;;;;33.04;20.29;100770.04;130428;1256;114702;-69
2023/06/05 08:54:36;;;;;;;3.10;2.20;;;;;;;32.83;20.45;100768.61;130224;1254;114727;-68
2023/06/05 08:57:40;;;;;;;2.80;2.10;;;;;;;32.44;20.48;100766.66;130081;1254;119192;-67
2023/06/05 09:00:42;;;;;;;5.30;2.30;;;;;;;32.14;20.57;100765.75;130488;1257;114740;-67
2023/06/05 09:03:44;;;;;;;6.60;2.20;;;;;;;31.81;20.34;100764.23;129976;1260;115254;-65
2023/06/05 09:06:47;;;;;;;4.80;2.20;;;;;;;31.13;20.28;100760.56;130096;1260;114793;-67
2023/06/05 09:09:49;;;;;;;5.60;1.90;;;;;;;30.78;20.87;100754.74;129885;1258;114827;-68
2023/06/05 09:13:02;;;;;;;7.00;2.20;;;;;;;30.78;21.17;100755.98;129860;1273;115361;-68
2023/06/05 09:16:04;;;;;;;2.30;1.90;;;;;;;30.89;21.20;100754.08;129829;1275;119140;-69
2023/06/05 09:19:06;;;;;;;2.90;1.90;;;;;;;30.70;20.64;100754.02;129947;1281;115173;-68
2023/06/05 09:22:10;;;;;;;3.10;2.00;;;;;;;30.15;20.23;100761.13;130403;1262;114783;-69
2023/06/05 09:25:12;;;;;;;2.90;2.00;;;;;;;29.54;20.35;100756.11;130434;1258;114699;-69
2023/06/05 09:28:15;;;;;;;7.60;2.20;;;;;;;29.09;20.94;100753.41;130377;1257;114719;-68
2023/06/05 09:31:18;;;;;;;5.70;2.30;;;;;;;29.07;21.12;100751.79;130507;1258;115237;-68
2023/06/05 09:34:29;;;;;;;4.10;1.90;;;;;;;29.09;21.04;100746.70;130272;1276;114818;-68
2023/06/05 09:37:35;;;;;;;3.20;2.20;;;;;;;28.99;21.07;100742.81;130310;1276;115224;-68
2023/06/05 09:40:38;;;;;;;2.80;1.70;;;;;;;28.94;21.04;100736.94;130317;1256;114693;-68
2023/06/05 09:43:40;;;;;;;8.50;1.90;;;;;;;28.84;21.40;100733.88;130468;1257;114822;-69
2023/06/05 09:47:08;;;;;;;6.10;2.10;;;;;;;28.49;21.66;100729.41;130350;1258;115074;-69
2023/06/05 09:50:22;;;;;;;6.20;2.00;;;;;;;28.19;21.89;100735.01;130081;1257;119399;-69
2023/06/05 09:53:25;;;;;;;5.00;2.30;;;;;;;27.87;21.99;100732.42;130349;1256;114679;-69
2023/06/05 09:56:28;;;;;;;3.70;1.90;;;;;;;27.48;22.50;100729.44;130278;1275;114844;-69
2023/06/05 09:59:41;;;;;;;3.60;2.10;;;;;;;27.27;22.77;100725.49;130347;1258;114733;-68
2023/06/05 10:02:44;;;;;;;4.30;1.70;;;;;;;27.14;22.73;100727.24;130117;1275;114820;-68
2023/06/05 10:05:46;;;;;;;6.00;1.90;;;;;;;26.99;23.08;100722.27;130370;1257;114779;-68
2023/06/05 10:08:49;;;;;;;4.50;1.50;;;;;;;26.86;23.01;100719.73;130351;1261;114790;-69
2023/06/05 10:11:51;;;;;;;3.40;2.20;;;;;;;26.66;22.94;100716.54;130564;1275;114779;-69
2023/06/05 10:14:57;;;;;;;3.70;1.90;;;;;;;26.55;23.12;100719.63;130465;1258;114760;-68
2023/06/05 10:18:00;;;;;;;2.50;2.00;;;;;;;26.46;23.22;100714.78;130244;1257;114736;-68
2023/06/05 10:21:03;;;;;;;4.20;1.60;;;;;;;26.39;23.12;100720.23;129964;1254;114686;-68
2023/06/05 10:24:35;;;;;;;2.20;1.70;;;;;;;26.27;23.29;100711.36;130388;1257;114752;-67
2023/06/05 10:27:54;;;;;;;2.80;1.60;;;;;;;26.11;23.38;100714.52;130322;1275;115244;-68
2023/06/05 10:30:59;;;;;;;1.60;1.50;;;;;;;25.98;23.62;100708.29;130246;1254;114722;-68
2023/06/05 10:34:19;;;;;;;6.70;1.70;;;;;;;25.86;23.58;100702.96;130018;1263;116198;-67
2023/06/05 10:37:44;;;;;;;4.40;1.50;;;;;;;25.69;23.97;100698.37;129935;1258;114971;-68
2023/06/05 10:41:00;;;;;;;2.80;2.20;;;;;;;25.68;24.26;100695.55;130129;1254;118935;-68
2023/06/05 10:44:02;;;;;;;4.30;2.40;;;;;;;25.71;24.12;100698.52;130298;1276;115234;-68
2023/06/05 10:47:47;;;;;;;3.30;1.70;;;;;;;25.65;23.98;100705.19;130277;1258;114714;-67
2023/06/05 10:50:49;;;;;;;4.70;1.70;;;;;;;25.59;23.81;100697.95;129993;1258;114875;-67
2023/06/05 10:53:51;;;;;;;3.70;1.80;;;;;;;25.59;24.17;100693.51;130257;1253;114712;-66
2023/06/05 10:57:02;;;;;;;3.70;1.90;;;;;;;25.61;24.33;100693.88;130350;1254;114719;-67
2023/06/05 11:00:11;;;;;;;4.10;1.60;;;;;;;25.60;24.46;100691.99;130318;1260;119207;-67
2023/06/05 11:03:13;;;;;;;4.60;2.10;;;;;;;25.61;24.52;100682.15;130458;1258;115249;-66
2023/06/05 11:06:15;;;;;;;6.40;2.40;;;;;;;25.55;24.57;100684.91;130319;1259;115187;-67
2023/06/05 11:09:18;;;;;;;2.80;1.90;;;;;;;25.48;24.53;100681.70;130301;1276;114725;-66
2023/06/05 11:12:20;;;;;;;2.90;2.10;;;;;;;25.50;24.49;100679.91;130448;1257;114735;-67
2023/06/05 11:15:22;;;;;;;2.70;1.60;;;;;;;25.47;24.34;100681.08;130318;1254;114715;-67
2023/06/05 11:18:31;;;;;;;5.00;2.00;;;;;;;25.46;24.42;100685.64;130202;1254;114751;-67
2023/06/05 11:22:03;;;;;;;2.80;1.80;;;;;;;25.44;24.34;100681.29;129933;1276;115179;-68
2023/06/05 11:25:17;;;;;;;3.40;2.30;;;;;;;25.37;24.17;100672.80;130016;1259;114827;-69
2023/06/05 11:28:40;;;;;;;;;;;;;;;25.30;24.37;100671.69;130079;1260;114873;-69
2023/06/05 11:31:43;;;;;;;4.10;2.10;;;;;;;25.35;24.44;100669.74;130259;1254;114757;-68
2023/06/05 11:34:51;;;;;;;3.80;1.80;;;;;;;25.39;24.17;100666.40;130364;1257;127608;-68
2023/06/05 11:38:13;;;;;;;3.70;2.00;;;;;;;25.41;24.32;100673.35;130406;1257;115266;-68
2023/06/05 11:41:15;;;;;;;2.90;2.00;;;;;;;25.37;24.10;100670.27;130464;1257;114699;-68
2023/06/05 11:44:35;;;;;;;6.30;2.40;;;;;;;25.35;24.25;100663.50;130439;1275;114736;-68
2023/06/05 11:47:38;;;;;;;4.90;2.50;;;;;;;25.33;24.33;100666.71;130444;1256;114788;-67
2023/06/05 11:51:01;;;;;;;5.00;2.50;;;;;;;25.32;24.53;100661.23;130444;1257;114725;-69
2023/06/05 11:54:07;;;;;;;8.10;2.00;;;;;;;25.34;24.44;100656.29;132008;1253;115252;-68
2023/06/05 11:57:10;;;;;;;7.40;1.90;;;;;;;25.33;24.26;100659.10;132927;1256;114705;-67
2023/06/05 12:00:13;;;;;;;3.00;2.30;;;;;;;25.32;24.11;100657.63;131115;1261;114808;-70
2023/06/05 12:03:22;;;;;;;4.70;2.10;;;;;;;25.29;24.09;100651.17;130630;1258;114683;-68
2023/06/05 12:06:25;;;;;;;4.50;1.90;;;;;;;25.26;24.28;100646.59;130678;1257;129215;-69
2023/06/05 12:09:27;;;;;;;4.00;1.90;;;;;;;25.22;24.07;100640.48;130521;1256;114762;-69
2023/06/05 12:12:29;;;;;;;7.60;2.20;;;;;;;25.19;24.07;100644.02;130583;1257;114743;-69
2023/06/05 12:15:32;;;;;;;3.80;1.90;;;;;;;25.17;23.90;100643.49;130045;1260;114859;-68
2023/06/05 12:18:35;;;;;;;5.20;2.10;;;;;;;25.13;23.92;100635.17;130373;1257;114753;-68
2023/06/05 12:21:37;;;;;;;4.20;2.20;;;;;;;25.03;23.76;100632.52;130382;1275;114731;-69
2023/06/05 12:24:39;;;;;;;3.40;2.10;;;;;;;24.97;23.88;100638.48;130558;1253;115661;-67
2023/06/05 12:27:41;;;;;;;4.50;2.20;;;;;;;24.94;23.97;100637.92;130290;1257;128037;-69
2023/06/05 12:30:44;;;;;;;2.70;2.30;;;;;;;24.93;24.10;100634.17;130337;1256;114746;-68
2023/06/05 12:33:49;;;;;;;2.20;1.80;;;;;;;24.95;24.10;100625.14;130598;1257;115297;-69
2023/06/05 12:36:51;;;;;;;5.70;1.90;;;;;;;24.96;24.16;100622.46;130065;1257;115112;-68
2023/06/05 12:39:53;;;;;;;9.70;2.40;;;;;;;24.97;24.17;100613.85;130411;1256;114698;-67
2023/06/05 12:42:56;;;;;;;2.40;2.00;;;;;;;24.98;24.34;100610.02;130345;1256;114702;-68
2023/06/05 12:45:59;;;;;;;2.50;1.70;;;;;;;25.00;24.05;100608.05;130409;1253;116534;-67
2023/06/05 12:49:02;;;;;;;5.80;2.10;;;;;;;24.98;24.11;100601.64;130157;1257;127601;-67
2023/06/05 12:52:08;;;;;;;2.50;2.10;;;;;;;25.01;23.95;100601.98;130150;1261;114696;-68
2023/06/05 12:55:11;;;;;;;3.10;2.40;;;;;;;25.03;24.09;100603.52;130139;1260;114918;-68
2023/06/05 12:58:14;;;;;;;3.60;2.30;;;;;;;25.08;24.03;100599.52;130467;1275;114693;-68
2023/06/05 13:01:16;;;;;;;2.70;2.00;;;;;;;25.08;23.83;100596.19;130385;1259;114714;-67
2023/06/05 13:04:18;;;;;;;5.00;2.30;;;;;;;25.09;23.89;100591.67;130375;1275;114708;-68
2023/06/05 13:07:21;;;;;;;3.70;1.90;;;;;;;25.11;24.15;100586.40;130467;1257;114803;-69
2023/06/05 13:10:23;;;;;;;6.90;2.00;;;;;;;25.16;24.22;100588.63;130035;1257;115185;-67
2023/06/05 13:13:26;;;;;;;3.80;2.10;;;;;;;25.22;24.15;100582.89;130463;1272;115138;-68
2023/06/05 13:16:28;;;;;;;4.20;1.80;;;;;;;25.25;24.11;100581.44;130519;1256;114692;-67
2023/06/05 13:19:30;;;;;;;7.80;2.30;;;;;;;25.27;23.78;100577.04;130174;1260;114980;-68
2023/06/05 13:22:32;;;;;;;2.50;2.10;;;;;;;25.23;24.00;100573.95;130494;1254;114752;-69
2023/06/05 13:25:34;;;;;;;5.10;2.20;;;;;;;25.25;24.28;100571.76;130558;1256;114788;-70
2023/06/05 13:28:36;;;;;;;7.30;2.00;;;;;;;25.22;24.28;100569.48;130491;1272;114696;-68
2023/06/05 13:31:40;;;;;;;3.60;1.80;;;;;;;25.23;24.55;100563.02;130164;1259;115150;-69
2023/06/05 13:34:42;;;;;;;4.40;2.20;;;;;;;25.24;24.39;100561.02;130618;1257;114740;-69
2023/06/05 13:37:45;;;;;;;6.80;2.10;;;;;;;25.26;24.58;100559.76;130613;1275;116203;-69
2023/06/05 13:40:49;;;;;;;3.10;2.20;;;;;;;25.28;24.54;100558.09;130473;1256;114769;-68
2023/06/05 13:43:51;;;;;;;5.40;2.00;;;;;;;25.33;24.39;100555.33;130625;1270;114776;-67
2023/06/05 13:46:55;;;;;;;4.80;2.10;;;;;;;25.37;24.51;100548.98;130328;1256;114697;-68
2023/06/05 13:49:57;;;;;;;3.40;2.60;;;;;;;25.45;24.49;100550.42;130259;1256;114801;-68
2023/06/05 13:52:59;;;;;;;3.00;2.30;;;;;;;25.53;24.46;100550.45;130209;1257;114716;-69
2023/06/05 13:56:03;;;;;;;7.30;2.20;;;;;;;25.60;24.19;100552.28;130297;1276;114721;-68
2023/06/05 13:59:05;;;;;;;5.60;2.00;;;;;;;25.65;24.22;100540.96;130505;1257;114801;-68